Time;durP1;ratioP1;P1;durP2;ratioP2;P2;SDS_P1;SDS_P2;PMS_P1;PMS_P2;Temp;Humidity;BMP_temperature;BMP_pressure;BME280_temperature;BME280_humidity;BME280_pressure;Samples;Min_cycle;Max_cycle;Signal;HPM_P1;HPM_P2
2023/01/30 00:01:43;;;;;;;25.38;15.48;;;1.40;99.90;;;;;;5052205;28;20108;-53
2023/01/30 00:04:13;;;;;;;25.52;15.48;;;1.50;99.90;;;;;;5053594;28;20061;-52
2023/01/30 00:06:39;;;;;;;27.85;16.02;;;1.50;99.90;;;;;;5054330;28;20035;-51
2023/01/30 00:09:05;;;;;;;35.47;17.30;;;1.60;99.90;;;;;;5053611;28;20491;-52
2023/01/30 00:11:32;;;;;;;25.50;15.18;;;1.60;99.90;;;;;;5054157;28;20035;-48
2023/01/30 00:13:58;;;;;;;30.20;16.10;;;1.60;99.90;;;;;;5054233;28;20032;-53
2023/01/30 00:16:24;;;;;;;31.70;17.83;;;1.70;99.90;;;;;;5054891;28;20029;-49
2023/01/30 00:18:49;;;;;;;33.97;17.67;;;1.60;99.90;;;;;;5054743;28;20094;-53
2023/01/30 00:21:15;;;;;;;27.63;16.23;;;1.70;99.90;;;;;;5054958;28;20036;-48
2023/01/30 00:23:41;;;;;;;23.15;14.77;;;1.70;99.90;;;;;;5053640;28;20025;-50
2023/01/30 00:26:08;;;;;;;27.55;16.58;;;1.70;99.90;;;;;;5054136;28;20028;-48
2023/01/30 00:28:35;;;;;;;26.08;15.52;;;1.60;99.90;;;;;;5053778;28;20028;-55
2023/01/30 00:31:01;;;;;;;26.90;16.38;;;1.60;99.90;;;;;;5053516;28;20488;-51
2023/01/30 00:33:27;;;;;;;23.83;15.10;;;1.50;99.90;;;;;;5035398;28;20032;-51
2023/01/30 00:35:54;;;;;;;27.92;16.42;;;1.60;99.90;;;;;;5053963;28;20100;-49
2023/01/30 00:38:21;;;;;;;26.50;15.57;;;1.60;99.90;;;;;;5053147;28;20559;-51
2023/01/30 00:40:47;;;;;;;26.40;16.00;;;1.80;99.90;;;;;;5053038;28;20029;-50
2023/01/30 00:48:47;;;;;;;25.17;14.75;;;1.80;99.90;;;;;;5052795;28;20036;-48
2023/01/30 00:51:13;;;;;;;24.25;15.10;;;1.70;99.90;;;;;;5052670;28;20029;-51
2023/01/30 00:53:38;;;;;;;28.23;16.35;;;1.60;99.90;;;;;;5052470;28;20032;-49
2023/01/30 00:56:04;;;;;;;26.23;14.82;;;1.60;99.90;;;;;;5052712;28;20017;-49
2023/01/30 00:58:30;;;;;;;28.35;15.80;;;1.60;99.90;;;;;;5052559;28;20025;-49
2023/01/30 01:00:55;;;;;;;31.23;16.75;;;1.60;99.90;;;;;;5052432;28;20511;-53
2023/01/30 01:03:21;;;;;;;26.95;15.32;;;1.60;99.90;;;;;;5052184;28;20484;-53
2023/01/30 01:05:47;;;;;;;27.13;15.35;;;1.60;99.90;;;;;;5052401;28;20036;-52
2023/01/30 01:08:13;;;;;;;29.20;15.13;;;1.60;99.90;;;;;;5052522;28;20031;-48
2023/01/30 01:10:38;;;;;;;27.85;15.02;;;1.60;99.90;;;;;;5052295;28;20025;-49
2023/01/30 01:13:05;;;;;;;28.33;16.88;;;1.70;99.90;;;;;;5033671;28;20025;-49
2023/01/30 01:15:32;;;;;;;26.90;15.80;;;1.70;99.90;;;;;;5052067;28;20017;-48
2023/01/30 01:17:57;;;;;;;23.23;15.07;;;1.70;99.90;;;;;;5052063;28;20013;-53
2023/01/30 01:20:23;;;;;;;27.85;15.85;;;1.70;99.90;;;;;;5052238;28;20054;-49
2023/01/30 01:22:53;;;;;;;24.05;15.45;;;1.70;99.90;;;;;;5034008;28;20090;-51
2023/01/30 01:25:19;;;;;;;27.38;14.73;;;1.70;99.90;;;;;;5052114;28;20108;-49
2023/01/30 01:27:45;;;;;;;26.65;15.73;;;1.70;99.90;;;;;;5053128;28;20435;-48
2023/01/30 01:30:11;;;;;;;26.67;16.38;;;1.70;99.90;;;;;;5034303;28;20345;-49
2023/01/30 01:32:37;;;;;;;29.85;16.80;;;1.60;99.90;;;;;;5051618;28;20021;-48
2023/01/30 01:35:03;;;;;;;30.92;16.63;;;1.70;99.90;;;;;;5052134;28;20017;-52
2023/01/30 01:37:29;;;;;;;28.77;16.63;;;1.60;99.90;;;;;;5052429;28;20029;-52
2023/01/30 01:42:39;;;;;;;31.30;16.95;;;1.70;99.90;;;;;;5051322;28;20035;-50
2023/01/30 01:45:16;;;;;;;28.13;16.52;;;1.70;99.90;;;;;;5050485;28;20029;-49
2023/01/30 01:47:53;;;;;;;28.58;15.50;;;1.70;99.90;;;;;;5051670;28;20047;-48
2023/01/30 01:50:25;;;;;;;28.90;17.30;;;1.70;99.90;;;;;;5051514;28;20112;-50
2023/01/30 01:52:53;;;;;;;28.30;16.67;;;1.70;99.90;;;;;;5051408;28;20036;-50
2023/01/30 01:55:22;;;;;;;28.17;15.98;;;1.70;99.90;;;;;;5052044;28;20047;-48
2023/01/30 01:57:53;;;;;;;29.33;17.20;;;1.70;99.90;;;;;;5051517;28;20429;-48
2023/01/30 02:00:20;;;;;;;31.95;17.30;;;1.70;99.90;;;;;;5051508;28;20029;-53
2023/01/30 02:03:00;;;;;;;28.77;16.35;;;1.70;99.90;;;;;;5051274;28;20403;-48
2023/01/30 02:05:31;;;;;;;33.35;17.85;;;1.70;99.90;;;;;;5051362;28;20029;-48
2023/01/30 02:08:06;;;;;;;31.73;19.15;;;1.70;99.90;;;;;;5051564;28;20017;-48
2023/01/30 02:10:58;;;;;;;34.38;17.42;;;1.70;99.90;;;;;;5051593;28;20047;-52
2023/01/30 02:13:24;;;;;;;30.23;17.08;;;1.70;99.90;;;;;;5051298;28;20040;-53
2023/01/30 02:15:50;;;;;;;31.40;18.70;;;1.70;99.90;;;;;;5051249;28;20389;-53
2023/01/30 02:18:16;;;;;;;32.70;18.05;;;1.70;99.90;;;;;;5051259;28;20067;-54
2023/01/30 02:21:02;;;;;;;33.92;19.17;;;1.70;99.90;;;;;;5051185;28;20025;-53
2023/01/30 02:24:05;;;;;;;27.35;16.70;;;1.70;99.90;;;;;;5050853;28;20072;-50
2023/01/30 02:26:52;;;;;;;28.58;15.75;;;1.70;99.90;;;;;;5055220;28;20480;-49
2023/01/30 02:29:28;;;;;;;26.80;15.80;;;1.60;99.90;;;;;;5055371;28;20033;-54
2023/01/30 02:32:18;;;;;;;31.88;17.65;;;1.60;99.90;;;;;;5037287;28;20081;-48
2023/01/30 02:34:46;;;;;;;30.45;16.13;;;1.60;99.90;;;;;;5055228;28;20025;-53
2023/01/30 02:40:40;;;;;;;27.52;15.98;;;1.70;99.90;;;;;;5054087;28;20086;-52
2023/01/30 02:43:25;;;;;;;27.98;16.95;;;1.70;99.90;;;;;;5054539;28;20036;-49
2023/01/30 02:46:19;;;;;;;26.77;15.20;;;1.60;99.90;;;;;;5055296;28;20060;-53
2023/01/30 02:48:57;;;;;;;29.10;16.42;;;1.60;99.90;;;;;;5055208;28;20028;-51
2023/01/30 02:51:29;;;;;;;27.10;15.32;;;1.60;99.90;;;;;;5055058;28;20135;-55
2023/01/30 02:53:55;;;;;;;26.52;16.13;;;1.60;99.90;;;;;;5054663;28;20032;-50
2023/01/30 02:56:20;;;;;;;30.30;15.02;;;1.60;99.90;;;;;;5054696;28;20025;-52
2023/01/30 02:59:01;;;;;;;25.63;14.35;;;1.70;99.90;;;;;;5054788;28;20021;-50
2023/01/30 03:01:43;;;;;;;28.17;15.10;;;1.70;99.90;;;;;;5054912;28;20017;-52
2023/01/30 03:04:25;;;;;;;27.65;14.85;;;1.60;99.90;;;;;;5054544;28;20032;-52
2023/01/30 03:07:07;;;;;;;28.88;16.05;;;1.60;99.90;;;;;;5055259;28;20025;-54
2023/01/30 03:10:06;;;;;;;25.52;14.35;;;1.60;99.90;;;;;;5054780;28;20025;-51
2023/01/30 03:13:05;;;;;;;29.27;16.02;;;1.70;99.90;;;;;;5054396;28;20066;-49
2023/01/30 03:15:40;;;;;;;27.95;16.55;;;1.60;99.90;;;;;;5054649;28;20017;-49
2023/01/30 03:18:07;;;;;;;27.00;15.10;;;1.70;99.90;;;;;;5054518;28;20033;-52
2023/01/30 03:20:37;;;;;;;27.63;16.33;;;1.70;99.90;;;;;;5054867;28;20091;-49
2023/01/30 03:23:03;;;;;;;25.58;16.05;;;1.70;99.90;;;;;;5054526;28;20029;-49
2023/01/30 03:25:29;;;;;;;27.50;15.23;;;1.70;99.90;;;;;;5054455;28;20048;-48
2023/01/30 03:27:55;;;;;;;29.17;16.67;;;1.70;99.90;;;;;;5054686;28;20467;-51
2023/01/30 03:30:23;;;;;;;29.98;16.70;;;1.70;99.90;;;;;;5054489;28;20024;-50
2023/01/30 03:32:49;;;;;;;28.33;15.73;;;1.70;99.90;;;;;;5054082;28;20021;-49
2023/01/30 03:35:16;;;;;;;28.80;17.27;;;1.70;99.90;;;;;;5054432;28;20036;-49
2023/01/30 03:37:45;;;;;;;26.13;16.17;;;1.70;99.90;;;;;;5053865;28;20013;-48
2023/01/30 03:40:12;;;;;;;30.23;17.25;;;1.70;99.90;;;;;;5054478;28;20071;-47
2023/01/30 03:42:37;;;;;;;29.48;16.25;;;1.70;99.90;;;;;;5052807;28;20403;-48
2023/01/30 03:45:03;;;;;;;27.33;15.68;;;1.60;99.90;;;;;;5057664;28;20029;-53
2023/01/30 03:47:29;;;;;;;28.23;16.50;;;1.70;99.90;;;;;;5055809;28;20543;-53
2023/01/30 03:49:54;;;;;;;30.83;17.20;;;1.70;99.90;;;;;;5055236;28;20029;-54
2023/01/30 03:52:20;;;;;;;31.25;16.85;;;1.70;99.90;;;;;;5059403;28;20033;-47
2023/01/30 03:54:45;;;;;;;29.23;17.63;;;1.70;99.90;;;;;;5060099;28;20025;-53
2023/01/30 03:57:11;;;;;;;37.70;18.23;;;1.60;99.90;;;;;;5058969;28;20029;-47
2023/01/30 03:59:36;;;;;;;29.02;16.63;;;1.70;99.90;;;;;;5059030;28;20396;-51
2023/01/30 04:02:02;;;;;;;33.78;18.23;;;1.60;99.90;;;;;;5056988;28;20028;-52
2023/01/30 04:04:27;;;;;;;33.15;19.05;;;1.70;99.90;;;;;;5055045;28;20531;-49
2023/01/30 04:06:53;;;;;;;39.03;20.40;;;1.70;99.90;;;;;;5054587;28;20043;-47
2023/01/30 04:09:18;;;;;;;33.42;19.67;;;1.70;99.90;;;;;;5054296;28;20384;-48
2023/01/30 04:11:44;;;;;;;32.33;19.27;;;1.70;99.90;;;;;;5054607;28;20021;-49
2023/01/30 04:14:09;;;;;;;31.25;17.52;;;1.70;99.90;;;;;;5054002;28;20479;-48
2023/01/30 04:16:35;;;;;;;35.13;18.48;;;1.70;99.90;;;;;;5054773;28;20127;-53
2023/01/30 04:19:01;;;;;;;37.25;20.55;;;1.70;99.90;;;;;;5054493;28;20035;-53
2023/01/30 04:21:26;;;;;;;40.20;21.80;;;1.70;99.90;;;;;;5053762;28;20056;-53
2023/01/30 04:23:52;;;;;;;33.95;20.05;;;1.70;99.90;;;;;;5053102;28;20044;-49
2023/01/30 04:26:17;;;;;;;30.67;18.35;;;1.70;99.90;;;;;;5053379;28;20373;-50
2023/01/30 04:28:43;;;;;;;35.30;19.02;;;1.60;99.90;;;;;;5053260;28;20068;-51
2023/01/30 04:31:09;;;;;;;37.30;19.00;;;1.60;99.90;;;;;;5053392;28;20406;-50
2023/01/30 04:33:34;;;;;;;39.03;21.20;;;1.60;99.90;;;;;;5034777;28;20028;-49
2023/01/30 04:36:02;;;;;;;35.60;21.23;;;1.60;99.90;;;;;;5053238;28;20146;-47
2023/01/30 04:38:29;;;;;;;33.50;18.58;;;1.60;99.90;;;;;;5052950;28;20025;-49
2023/01/30 04:40:55;;;;;;;40.05;21.95;;;1.70;99.90;;;;;;5052972;28;20029;-51
2023/01/30 04:43:22;;;;;;;34.65;19.77;;;1.60;99.90;;;;;;5052510;28;20036;-54
2023/01/30 04:45:49;;;;;;;36.13;20.08;;;1.60;99.90;;;;;;5053099;28;20510;-50
2023/01/30 04:48:16;;;;;;;35.33;19.83;;;1.60;99.90;;;;;;5051680;28;20093;-45
2023/01/30 04:50:43;;;;;;;38.15;20.92;;;1.60;99.90;;;;;;5052799;28;20385;-51
2023/01/30 04:53:09;;;;;;;38.58;21.17;;;1.70;99.90;;;;;;5051099;28;20025;-50
2023/01/30 04:55:35;;;;;;;34.45;19.80;;;1.70;99.90;;;;;;5052645;28;20029;-50
2023/01/30 04:58:01;;;;;;;40.53;20.15;;;1.70;99.90;;;;;;5052596;28;20025;-48
2023/01/30 05:00:26;;;;;;;35.35;19.83;;;1.60;99.90;;;;;;5052602;28;20029;-48
2023/01/30 05:02:54;;;;;;;37.10;20.33;;;1.70;99.90;;;;;;5051971;28;20428;-51
2023/01/30 05:05:23;;;;;;;38.38;20.40;;;1.70;99.90;;;;;;5052139;28;20086;-51
2023/01/30 05:07:49;;;;;;;35.85;19.85;;;1.60;99.90;;;;;;5052142;28;20029;-54
2023/01/30 05:10:15;;;;;;;35.38;20.38;;;1.70;99.90;;;;;;5051970;28;20534;-52
2023/01/30 05:12:41;;;;;;;35.60;20.40;;;1.70;99.90;;;;;;5052012;28;20028;-52
2023/01/30 05:15:07;;;;;;;39.17;21.38;;;1.70;99.90;;;;;;5052364;28;20388;-55
2023/01/30 05:17:34;;;;;;;30.70;18.85;;;1.70;99.90;;;;;;5052236;28;20032;-47
2023/01/30 05:19:59;;;;;;;33.83;18.90;;;1.80;99.90;;;;;;5051851;28;20036;-51
2023/01/30 05:22:25;;;;;;;34.72;19.75;;;1.70;99.90;;;;;;5051629;28;20041;-52
2023/01/30 05:24:50;;;;;;;31.95;18.38;;;1.70;99.90;;;;;;5051926;28;20357;-52
2023/01/30 05:27:16;;;;;;;31.25;18.52;;;1.70;99.90;;;;;;5051840;28;20025;-51
2023/01/30 05:29:41;;;;;;;31.33;17.55;;;1.80;99.90;;;;;;5033870;28;20032;-51
2023/01/30 05:32:09;;;;;;;33.70;18.85;;;1.80;99.90;;;;;;5051262;28;20040;-50
2023/01/30 05:34:34;;;;;;;37.83;19.27;;;1.90;99.90;;;;;;5051740;28;20017;-52
2023/01/30 05:37:00;;;;;;;29.13;17.20;;;1.90;99.90;;;;;;5051589;28;20025;-47
2023/01/30 05:39:25;;;;;;;31.20;17.75;;;1.80;99.90;;;;;;5051401;28;20025;-49
2023/01/30 05:41:51;;;;;;;32.92;17.33;;;1.90;99.90;;;;;;5051396;28;20441;-52
2023/01/30 05:44:16;;;;;;;29.33;17.13;;;1.90;99.90;;;;;;5051323;28;20021;-46
2023/01/30 05:46:42;;;;;;;30.83;17.33;;;1.90;99.90;;;;;;5051458;28;20025;-48
2023/01/30 05:49:07;;;;;;;28.13;17.85;;;1.80;99.90;;;;;;5051490;28;20029;-53
2023/01/30 05:51:33;;;;;;;30.45;17.42;;;1.80;99.90;;;;;;5051554;28;20025;-48
2023/01/30 05:53:58;;;;;;;27.02;16.33;;;1.80;99.90;;;;;;5051561;28;20048;-49
2023/01/30 05:56:24;;;;;;;32.08;17.95;;;1.80;99.90;;;;;;5052194;28;20025;-48
2023/01/30 05:58:52;;;;;;;34.13;17.48;;;1.80;99.90;;;;;;5052516;28;20025;-49
2023/01/30 06:01:18;;;;;;;30.73;17.52;;;1.80;99.90;;;;;;5051878;28;20052;-48
2023/01/30 06:03:44;;;;;;;30.10;16.55;;;1.80;99.90;;;;;;5051755;28;20040;-49
2023/01/30 06:06:10;;;;;;;28.55;17.10;;;1.80;99.90;;;;;;5033863;28;20029;-48
2023/01/30 06:08:36;;;;;;;25.40;14.55;;;1.80;99.90;;;;;;5051291;28;20047;-48
2023/01/30 06:11:07;;;;;;;26.85;15.27;;;1.90;99.90;;;;;;5051931;28;20033;-46
2023/01/30 06:13:33;;;;;;;26.85;16.33;;;1.90;99.90;;;;;;5051537;28;20100;-50
2023/01/30 06:15:59;;;;;;;29.95;16.95;;;1.90;99.90;;;;;;5051342;28;20059;-51
2023/01/30 06:18:25;;;;;;;28.92;16.20;;;1.90;99.90;;;;;;5033298;28;20517;-53
2023/01/30 06:20:52;;;;;;;25.80;15.55;;;1.80;99.90;;;;;;5051743;28;20048;-51
2023/01/30 06:23:18;;;;;;;25.98;15.18;;;1.90;99.90;;;;;;5050894;28;20102;-51
2023/01/30 06:25:45;;;;;;;24.42;14.50;;;1.90;99.90;;;;;;5051354;28;20538;-52
2023/01/30 06:28:11;;;;;;;23.55;13.45;;;1.90;99.90;;;;;;5033139;28;20056;-50
2023/01/30 06:30:36;;;;;;;22.42;13.75;;;1.80;99.90;;;;;;5033136;28;20040;-48
2023/01/30 06:33:02;;;;;;;25.75;14.93;;;1.90;99.90;;;;;;5051103;28;20025;-49
2023/01/30 06:35:27;;;;;;;25.70;14.82;;;1.90;99.90;;;;;;5033099;28;20021;-46
2023/01/30 06:37:53;;;;;;;24.60;13.50;;;1.90;99.90;;;;;;5051105;28;20087;-50
2023/01/30 06:40:18;;;;;;;21.23;13.38;;;1.90;99.90;;;;;;5051031;28;20017;-51
2023/01/30 06:42:47;;;;;;;22.00;13.93;;;1.90;99.90;;;;;;5050546;28;20040;-51
2023/01/30 06:45:15;;;;;;;20.52;12.40;;;1.90;99.90;;;;;;5050816;28;20039;-51
2023/01/30 06:47:52;;;;;;;24.67;15.23;;;1.90;99.90;;;;;;5051210;28;20025;-47
2023/01/30 06:50:19;;;;;;;27.13;14.10;;;2.00;99.90;;;;;;5050927;28;20036;-49
2023/01/30 06:52:46;;;;;;;24.30;14.27;;;1.90;99.90;;;;;;5050633;28;20037;-50
2023/01/30 06:55:14;;;;;;;22.60;14.13;;;2.00;99.90;;;;;;5049647;28;20476;-51
2023/01/30 06:57:40;;;;;;;22.33;13.45;;;1.90;99.90;;;;;;5050814;28;20028;-53
2023/01/30 07:00:08;;;;;;;23.13;14.05;;;2.00;99.90;;;;;;5050816;28;20017;-49
2023/01/30 07:02:34;;;;;;;22.17;13.13;;;2.00;99.90;;;;;;5050866;28;20035;-50
2023/01/30 07:05:04;;;;;;;24.75;13.77;;;2.00;99.90;;;;;;5050816;28;20660;-45
2023/01/30 07:07:30;;;;;;;21.65;14.10;;;2.00;99.90;;;;;;5050549;28;20087;-48
2023/01/30 07:09:56;;;;;;;24.30;13.80;;;2.00;99.90;;;;;;5050664;28;20115;-50
2023/01/30 07:12:23;;;;;;;23.95;14.35;;;2.00;99.90;;;;;;5051895;28;20033;-55
2023/01/30 07:14:49;;;;;;;22.88;12.45;;;2.10;99.90;;;;;;5054576;28;20017;-55
2023/01/30 07:17:15;;;;;;;25.20;12.95;;;2.10;99.90;;;;;;5036532;28;20025;-51
2023/01/30 07:19:41;;;;;;;20.83;13.73;;;2.10;99.90;;;;;;5054407;28;20074;-48
2023/01/30 07:22:07;;;;;;;22.30;13.48;;;2.10;99.90;;;;;;5054113;28;20021;-55
2023/01/30 07:24:32;;;;;;;23.38;13.85;;;2.20;99.90;;;;;;5054397;28;20090;-45
2023/01/30 07:26:58;;;;;;;21.55;13.32;;;2.20;99.90;;;;;;5053196;28;20056;-51
2023/01/30 07:29:23;;;;;;;29.25;16.67;;;2.20;99.90;;;;;;5054272;28;20392;-51
2023/01/30 07:31:50;;;;;;;22.42;13.02;;;2.30;99.90;;;;;;5054303;28;20029;-48
2023/01/30 07:34:16;;;;;;;20.63;13.07;;;2.20;99.90;;;;;;5053957;28;20036;-48
2023/01/30 07:36:41;;;;;;;20.95;13.48;;;2.20;99.90;;;;;;5054469;28;20384;-52
2023/01/30 07:39:08;;;;;;;23.45;14.35;;;2.30;99.90;;;;;;5055217;28;20086;-51
2023/01/30 07:41:34;;;;;;;23.20;13.98;;;2.30;99.90;;;;;;5053925;28;20094;-55
2023/01/30 07:44:00;;;;;;;21.58;13.25;;;2.30;99.90;;;;;;5053740;28;20484;-54
2023/01/30 07:46:27;;;;;;;25.73;14.40;;;2.30;99.90;;;;;;5053787;28;20083;-50
2023/01/30 07:48:53;;;;;;;20.52;12.80;;;2.30;99.90;;;;;;5053870;28;20048;-49
2023/01/30 07:51:18;;;;;;;22.90;14.60;;;2.30;99.90;;;;;;5036336;28;20111;-50
2023/01/30 07:53:43;;;;;;;25.00;14.02;;;2.30;99.90;;;;;;5053913;28;20029;-49
2023/01/30 07:56:13;;;;;;;25.13;15.00;;;2.30;99.90;;;;;;5053958;28;20024;-49
2023/01/30 07:58:38;;;;;;;23.13;14.00;;;2.40;99.90;;;;;;5054083;28;20023;-49
2023/01/30 08:01:04;;;;;;;22.75;12.82;;;2.40;99.90;;;;;;5054118;28;20029;-50
2023/01/30 08:03:30;;;;;;;22.70;14.07;;;2.40;99.90;;;;;;5052298;28;20075;-48
2023/01/30 08:05:55;;;;;;;23.25;13.80;;;2.40;99.90;;;;;;5053993;28;20036;-47
2023/01/30 08:08:21;;;;;;;20.83;12.90;;;2.40;99.90;;;;;;5053784;28;20400;-51
2023/01/30 08:10:48;;;;;;;19.80;12.30;;;2.40;99.90;;;;;;5053870;28;20484;-48
2023/01/30 08:13:13;;;;;;;21.38;13.57;;;2.50;99.90;;;;;;5053538;28;20021;-50
2023/01/30 08:15:39;;;;;;;21.17;12.63;;;2.50;99.90;;;;;;5053824;28;20028;-49
2023/01/30 08:18:06;;;;;;;21.27;13.60;;;2.50;99.90;;;;;;5053654;28;20059;-47
2023/01/30 08:20:32;;;;;;;21.83;13.80;;;2.60;99.90;;;;;;5035445;28;20060;-47
2023/01/30 08:22:59;;;;;;;20.17;12.90;;;2.50;99.90;;;;;;5053141;28;20057;-53
2023/01/30 08:25:25;;;;;;;21.42;13.15;;;2.50;99.90;;;;;;5053465;28;20029;-51
2023/01/30 08:27:51;;;;;;;19.92;12.38;;;2.50;99.90;;;;;;5053468;28;20031;-50
2023/01/30 08:30:17;;;;;;;21.38;13.23;;;2.50;99.90;;;;;;5053650;28;20033;-52
2023/01/30 08:32:43;;;;;;;22.33;12.50;;;2.50;99.90;;;;;;5053235;28;20021;-49
2023/01/30 08:35:09;;;;;;;20.45;12.35;;;2.50;99.90;;;;;;5053469;28;20017;-50
2023/01/30 08:37:34;;;;;;;20.15;11.60;;;2.50;99.90;;;;;;5053506;28;20069;-53
2023/01/30 08:40:00;;;;;;;17.00;12.15;;;2.60;99.90;;;;;;5053375;28;20506;-50
2023/01/30 08:42:25;;;;;;;22.30;12.82;;;2.60;99.90;;;;;;5052598;28;20099;-49
2023/01/30 08:44:51;;;;;;;20.98;11.88;;;2.70;99.90;;;;;;5053315;28;20029;-51
2023/01/30 08:47:16;;;;;;;19.95;12.07;;;2.70;99.90;;;;;;5053122;28;20025;-47
2023/01/30 08:49:42;;;;;;;18.20;12.05;;;2.70;99.90;;;;;;5052884;28;20074;-53
2023/01/30 08:52:07;;;;;;;18.00;11.95;;;2.70;99.90;;;;;;5052659;28;20036;-49
2023/01/30 08:54:33;;;;;;;20.77;12.82;;;2.70;99.90;;;;;;5052808;28;20127;-48
2023/01/30 08:56:59;;;;;;;18.90;11.75;;;2.80;99.90;;;;;;5052014;28;20029;-49
2023/01/30 08:59:24;;;;;;;18.33;10.68;;;2.80;99.90;;;;;;5043997;28;20057;-46
2023/01/30 09:01:49;;;;;;;16.13;10.88;;;2.70;99.90;;;;;;5021191;28;20025;-50
2023/01/30 09:04:15;;;;;;;18.23;11.00;;;2.70;99.90;;;;;;5031050;28;20056;-48
2023/01/30 09:06:40;;;;;;;18.02;10.98;;;2.80;99.90;;;;;;5050293;28;20059;-50
2023/01/30 09:09:06;;;;;;;14.80;9.75;;;2.80;99.90;;;;;;5041515;28;20092;-47
2023/01/30 09:11:31;;;;;;;17.55;10.95;;;2.90;99.90;;;;;;5033846;28;20033;-48
2023/01/30 09:13:57;;;;;;;17.50;11.00;;;2.90;99.90;;;;;;5032580;28;20052;-52
2023/01/30 09:16:22;;;;;;;16.25;9.38;;;2.90;99.90;;;;;;5032959;28;20485;-50
2023/01/30 09:18:48;;;;;;;16.05;10.50;;;2.90;99.90;;;;;;5015291;28;20025;-49
2023/01/30 09:21:14;;;;;;;13.68;8.77;;;3.00;99.90;;;;;;5034975;28;20395;-49
2023/01/30 09:23:40;;;;;;;12.40;8.63;;;3.00;99.90;;;;;;5032068;28;20515;-48
2023/01/30 09:26:06;;;;;;;14.98;7.95;;;3.00;99.90;;;;;;5014705;28;20060;-48
2023/01/30 09:28:32;;;;;;;12.07;7.68;;;3.10;99.90;;;;;;5033726;28;20048;-49
2023/01/30 09:30:59;;;;;;;10.80;7.47;;;3.20;99.90;;;;;;5033000;28;20033;-48
2023/01/30 09:33:25;;;;;;;8.95;7.18;;;3.30;99.90;;;;;;5020716;28;20021;-49
2023/01/30 09:35:51;;;;;;;10.55;6.40;;;3.40;99.90;;;;;;5051433;28;20032;-50
2023/01/30 09:38:17;;;;;;;7.18;5.47;;;3.50;99.90;;;;;;5050589;28;20096;-50
2023/01/30 09:41:10;;;;;;;7.65;5.53;;;3.50;99.90;;;;;;5032498;28;20083;-51
2023/01/30 09:43:59;;;;;;;5.90;4.65;;;3.60;99.90;;;;;;5014420;28;20032;-50
2023/01/30 09:47:01;;;;;;;5.43;4.82;;;3.60;99.90;;;;;;5032424;28;20037;-52
2023/01/30 09:49:48;;;;;;;3.65;3.25;;;3.70;99.90;;;;;;5032761;28;20025;-51
2023/01/30 09:52:51;;;;;;;4.05;3.50;;;3.80;99.90;;;;;;5031865;28;20041;-49
2023/01/30 09:55:28;;;;;;;3.97;3.58;;;3.90;99.90;;;;;;5031859;28;20024;-52
2023/01/30 09:57:55;;;;;;;3.65;3.17;;;3.90;99.90;;;;;;5032082;28;20148;-52
2023/01/30 10:00:33;;;;;;;2.85;2.65;;;4.00;99.90;;;;;;5032081;28;20025;-52
2023/01/30 10:03:07;;;;;;;3.15;2.85;;;4.10;99.90;;;;;;5031952;28;20029;-56
2023/01/30 10:05:44;;;;;;;3.33;3.03;;;4.20;99.90;;;;;;5032074;28;20045;-53
2023/01/30 10:08:37;;;;;;;3.58;2.38;;;4.20;99.90;;;;;;5032402;28;20040;-52
2023/01/30 10:11:23;;;;;;;2.28;2.13;;;4.20;99.90;;;;;;5031756;28;20029;-50
2023/01/30 10:14:07;;;;;;;2.20;2.08;;;4.40;99.90;;;;;;5020647;28;20049;-51
2023/01/30 10:16:54;;;;;;;2.08;1.85;;;4.40;99.90;;;;;;5031693;28;20044;-53
2023/01/30 10:19:31;;;;;;;1.90;1.80;;;4.40;99.90;;;;;;5050351;28;20048;-50
2023/01/30 10:22:06;;;;;;;1.92;1.77;;;4.50;99.90;;;;;;5030917;28;20399;-53
2023/01/30 10:24:47;;;;;;;1.75;1.65;;;4.50;99.90;;;;;;5051094;28;20021;-55
2023/01/30 10:27:16;;;;;;;2.40;1.67;;;4.50;99.90;;;;;;5050184;28;20059;-53
2023/01/30 10:29:51;;;;;;;1.98;1.88;;;4.60;99.90;;;;;;5043163;28;20075;-55
2023/01/30 10:32:30;;;;;;;1.25;1.25;;;4.60;99.90;;;;;;5046921;28;20025;-53
2023/01/30 10:35:02;;;;;;;1.80;1.70;;;4.70;99.90;;;;;;5050681;28;20039;-52
2023/01/30 10:37:39;;;;;;;1.42;1.33;;;4.80;99.90;;;;;;5051368;28;20112;-55
2023/01/30 10:40:38;;;;;;;3.28;1.92;;;4.90;99.90;;;;;;5047190;28;20060;-63
2023/01/30 10:43:43;;;;;;;1.63;1.50;;;5.00;99.90;;;;;;5051172;28;20037;-53
2023/01/30 10:46:09;;;;;;;1.60;1.50;;;5.80;99.90;;;;;;4954395;28;20078;-52
2023/01/30 10:48:53;;;;;;;1.27;1.20;;;6.40;99.90;;;;;;5032765;28;20122;-55
2023/01/30 10:51:30;;;;;;;1.58;1.48;;;6.40;99.90;;;;;;5043639;28;20024;-51
2023/01/30 10:54:12;;;;;;;1.63;1.52;;;6.40;99.90;;;;;;5054311;28;20021;-52
2023/01/30 10:56:47;;;;;;;1.77;1.67;;;6.30;99.90;;;;;;5054018;28;20025;-52
2023/01/30 10:59:33;;;;;;;1.48;1.38;;;6.00;99.90;;;;;;5046600;28;20028;-54
2023/01/30 11:02:15;;;;;;;1.60;1.50;;;5.70;99.90;;;;;;5047196;28;20013;-54
2023/01/30 11:04:58;;;;;;;1.88;1.77;;;5.50;99.90;;;;;;5041940;28;20114;-50
2023/01/30 11:07:27;;;;;;;1.83;1.73;;;5.30;99.90;;;;;;5041216;28;20436;-50
2023/01/30 11:09:52;;;;;;;2.22;2.03;;;5.20;99.90;;;;;;5034598;28;20022;-48
2023/01/30 11:12:18;;;;;;;1.77;1.67;;;5.10;99.90;;;;;;5034765;28;20101;-49
2023/01/30 11:14:51;;;;;;;3.28;1.77;;;5.10;99.90;;;;;;5028928;28;20033;-50
2023/01/30 11:17:19;;;;;;;2.30;2.10;;;5.30;99.90;;;;;;5037449;28;20017;-49
2023/01/30 11:19:52;;;;;;;1.63;1.58;;;5.60;99.90;;;;;;5034575;28;20385;-51
2023/01/30 11:22:17;;;;;;;1.98;1.77;;;6.00;99.90;;;;;;5034751;28;20060;-48
2023/01/30 11:24:44;;;;;;;2.30;2.10;;;6.20;99.90;;;;;;5035171;28;20049;-49
2023/01/30 11:27:17;;;;;;;1.60;1.60;;;6.40;99.90;;;;;;5034941;28;20050;-48
2023/01/30 11:29:43;;;;;;;1.85;1.75;;;;;;;;;;5034591;28;20033;-50
2023/01/30 11:32:18;;;;;;;2.47;2.28;;;6.60;99.90;;;;;;5034442;28;20105;-46
2023/01/30 11:34:59;;;;;;;1.90;1.80;;;6.50;99.90;;;;;;5016808;28;20029;-49
2023/01/30 11:37:31;;;;;;;1.88;1.77;;;6.30;99.90;;;;;;5034531;28;20036;-52
2023/01/30 11:39:56;;;;;;;2.38;2.17;;;6.10;99.90;;;;;;5034826;28;20388;-49
2023/01/30 11:42:29;;;;;;;4.38;2.10;;;5.90;99.90;;;;;;5040487;28;20028;-47
2023/01/30 11:44:58;;;;;;;2.55;2.35;;;5.80;99.90;;;;;;5054591;28;20021;-51
2023/01/30 11:47:26;;;;;;;2.58;2.38;;;5.70;99.90;;;;;;5036115;28;20021;-48
2023/01/30 11:49:55;;;;;;;2.17;2.08;;;5.60;99.90;;;;;;5052823;28;20123;-47
2023/01/30 11:52:29;;;;;;;2.10;2.00;;;5.60;99.90;;;;;;5052677;28;20118;-46
2023/01/30 11:55:04;;;;;;;2.25;2.05;;;5.70;99.90;;;;;;5053710;28;20033;-46
2023/01/30 11:57:42;;;;;;;2.63;2.38;;;5.70;99.90;;;;;;5053873;28;20090;-48
2023/01/30 12:00:22;;;;;;;2.25;2.15;;;5.80;99.90;;;;;;5053961;28;20033;-50
2023/01/30 12:02:49;;;;;;;2.03;1.90;;;5.90;99.90;;;;;;5053247;28;20025;-51
2023/01/30 12:05:31;;;;;;;2.17;1.90;;;6.00;99.90;;;;;;5053602;28;20487;-48
2023/01/30 12:08:15;;;;;;;2.50;1.65;;;6.00;99.90;;;;;;5032707;28;20550;-49
2023/01/30 12:10:43;;;;;;;2.67;2.28;;;6.10;99.90;;;;;;5051649;28;20032;-48
2023/01/30 12:13:29;;;;;;;1.80;1.63;;;6.20;99.90;;;;;;5052360;28;20515;-50
2023/01/30 12:16:40;;;;;;;1.75;1.65;;;6.30;99.90;;;;;;5052699;28;20041;-52
2023/01/30 12:19:43;;;;;;;1.92;1.83;;;6.30;99.90;;;;;;5053046;28;20037;-48
2023/01/30 12:22:41;;;;;;;1.98;1.88;;;6.20;99.90;;;;;;5057234;22;20038;-55
2023/01/30 12:25:19;;;;;;;2.20;2.00;;;6.20;99.90;;;;;;4979258;28;20037;-55
2023/01/30 12:28:02;;;;;;;1.90;1.33;;;6.10;99.90;;;;;;5033512;28;20039;-56
2023/01/30 12:30:36;;;;;;;1.90;1.80;;;6.10;99.90;;;;;;5014837;28;20025;-59
2023/01/30 12:33:05;;;;;;;1.90;1.65;;;6.20;99.90;;;;;;5032724;28;20079;-58
2023/01/30 12:35:45;;;;;;;2.30;2.08;;;6.30;99.90;;;;;;5033622;28;20072;-58
2023/01/30 12:39:02;;;;;;;1.90;1.77;;;6.30;99.90;;;;;;5015609;28;20108;-56
2023/01/30 12:41:34;;;;;;;3.40;2.10;;;6.30;99.90;;;;;;5015621;28;20053;-54
2023/01/30 12:44:19;;;;;;;2.40;1.30;;;6.30;99.90;;;;;;5032756;28;20053;-53
2023/01/30 12:46:56;;;;;;;1.80;1.70;;;6.40;99.90;;;;;;5033598;28;20500;-55
2023/01/30 12:49:37;;;;;;;1.95;1.85;;;6.30;99.90;;;;;;5033028;28;20451;-58
2023/01/30 12:52:31;;;;;;;2.13;1.40;;;6.30;99.90;;;;;;5033107;28;20026;-59
2023/01/30 12:54:56;;;;;;;1.70;1.60;;;6.30;99.90;;;;;;5015075;28;20128;-57
2023/01/30 12:57:43;;;;;;;3.33;1.23;;;6.40;99.90;;;;;;5032938;28;20089;-57
2023/01/30 13:00:35;;;;;;;1.35;1.30;;;6.40;99.90;;;;;;5014906;28;20013;-59
2023/01/30 13:03:10;;;;;;;2.20;1.52;;;6.30;99.90;;;;;;5032660;28;20072;-57
2023/01/30 13:05:45;;;;;;;1.40;1.10;;;6.30;99.90;;;;;;5015173;28;20029;-60
2023/01/30 13:08:30;;;;;;;1.38;1.27;;;6.30;99.90;;;;;;5032698;28;20037;-56
2023/01/30 13:11:12;;;;;;;1.75;1.30;;;6.30;99.90;;;;;;5030512;28;20111;-57
2023/01/30 13:13:47;;;;;;;2.00;1.20;;;6.40;99.90;;;;;;5031029;28;20033;-59